sensor_id;sensor_type;location;lat;lon;timestamp;P1;durP1;ratioP1;P2;durP2;ratioP2
15451;SDS011;7827;53.594;9.938;2023-02-12T00:01:37;17.43;;;7.67;;
15451;SDS011;7827;53.594;9.938;2023-02-12T00:04:06;12.70;;;7.17;;
15451;SDS011;7827;53.594;9.938;2023-02-12T00:06:35;16.43;;;8.07;;
15451;SDS011;7827;53.594;9.938;2023-02-12T00:09:05;14.67;;;7.07;;
15451;SDS011;7827;53.594;9.938;2023-02-12T00:11:33;17.93;;;7.27;;
15451;SDS011;7827;53.594;9.938;2023-02-12T00:14:02;16.37;;;7.03;;
15451;SDS011;7827;53.594;9.938;2023-02-12T00:16:31;14.63;;;8.20;;
15451;SDS011;7827;53.594;9.938;2023-02-12T00:18:59;14.63;;;7.17;;
15451;SDS011;7827;53.594;9.938;2023-02-12T00:21:28;14.67;;;7.43;;
15451;SDS011;7827;53.594;9.938;2023-02-12T00:23:57;12.27;;;6.13;;
15451;SDS011;7827;53.594;9.938;2023-02-12T00:26:25;13.97;;;6.20;;
15451;SDS011;7827;53.594;9.938;2023-02-12T00:28:54;15.03;;;6.70;;
15451;SDS011;7827;53.594;9.938;2023-02-12T00:31:23;14.77;;;6.50;;
15451;SDS011;7827;53.594;9.938;2023-02-12T00:33:55;15.30;;;7.20;;
15451;SDS011;7827;53.594;9.938;2023-02-12T00:36:25;12.27;;;6.30;;
15451;SDS011;7827;53.594;9.938;2023-02-12T00:38:58;13.37;;;6.50;;
15451;SDS011;7827;53.594;9.938;2023-02-12T00:41:27;15.70;;;7.13;;
15451;SDS011;7827;53.594;9.938;2023-02-12T00:43:57;15.17;;;6.93;;
15451;SDS011;7827;53.594;9.938;2023-02-12T00:46:25;16.53;;;7.20;;
15451;SDS011;7827;53.594;9.938;2023-02-12T00:48:53;16.90;;;6.97;;
15451;SDS011;7827;53.594;9.938;2023-02-12T00:51:21;14.10;;;7.10;;
15451;SDS011;7827;53.594;9.938;2023-02-12T00:53:51;14.33;;;6.90;;
15451;SDS011;7827;53.594;9.938;2023-02-12T00:56:19;13.33;;;6.10;;
15451;SDS011;7827;53.594;9.938;2023-02-12T00:58:48;11.73;;;5.97;;
15451;SDS011;7827;53.594;9.938;2023-02-12T01:01:16;11.17;;;5.73;;
15451;SDS011;7827;53.594;9.938;2023-02-12T01:03:45;9.30;;;5.20;;
15451;SDS011;7827;53.594;9.938;2023-02-12T01:06:13;11.27;;;5.60;;
15451;SDS011;7827;53.594;9.938;2023-02-12T01:08:43;10.43;;;5.43;;
15451;SDS011;7827;53.594;9.938;2023-02-12T01:11:13;8.90;;;5.13;;
15451;SDS011;7827;53.594;9.938;2023-02-12T01:13:43;9.40;;;4.27;;
15451;SDS011;7827;53.594;9.938;2023-02-12T01:16:15;8.63;;;4.60;;
15451;SDS011;7827;53.594;9.938;2023-02-12T01:18:46;8.37;;;4.50;;
15451;SDS011;7827;53.594;9.938;2023-02-12T01:21:15;11.53;;;4.47;;
15451;SDS011;7827;53.594;9.938;2023-02-12T01:23:46;9.43;;;4.90;;
15451;SDS011;7827;53.594;9.938;2023-02-12T01:26:17;10.50;;;5.87;;
15451;SDS011;7827;53.594;9.938;2023-02-12T01:28:49;13.03;;;6.77;;
15451;SDS011;7827;53.594;9.938;2023-02-12T01:31:21;11.63;;;6.53;;
15451;SDS011;7827;53.594;9.938;2023-02-12T01:33:52;16.17;;;6.97;;
15451;SDS011;7827;53.594;9.938;2023-02-12T01:36:25;13.00;;;6.90;;
15451;SDS011;7827;53.594;9.938;2023-02-12T01:38:55;18.57;;;7.70;;
15451;SDS011;7827;53.594;9.938;2023-02-12T01:41:27;12.63;;;7.20;;
15451;SDS011;7827;53.594;9.938;2023-02-12T01:44:05;16.33;;;7.60;;
15451;SDS011;7827;53.594;9.938;2023-02-12T01:46:38;16.20;;;7.13;;
15451;SDS011;7827;53.594;9.938;2023-02-12T01:49:07;17.17;;;7.67;;
15451;SDS011;7827;53.594;9.938;2023-02-12T01:51:42;18.20;;;7.40;;
15451;SDS011;7827;53.594;9.938;2023-02-12T01:54:13;17.17;;;7.80;;
15451;SDS011;7827;53.594;9.938;2023-02-12T01:56:46;19.40;;;8.60;;
15451;SDS011;7827;53.594;9.938;2023-02-12T01:59:16;18.17;;;7.93;;
15451;SDS011;7827;53.594;9.938;2023-02-12T02:01:47;17.00;;;7.77;;
15451;SDS011;7827;53.594;9.938;2023-02-12T02:04:16;17.80;;;8.77;;
15451;SDS011;7827;53.594;9.938;2023-02-12T02:06:55;18.80;;;8.50;;
15451;SDS011;7827;53.594;9.938;2023-02-12T02:09:25;16.00;;;7.87;;
15451;SDS011;7827;53.594;9.938;2023-02-12T02:11:57;17.30;;;7.47;;
15451;SDS011;7827;53.594;9.938;2023-02-12T02:14:43;17.03;;;7.43;;
15451;SDS011;7827;53.594;9.938;2023-02-12T02:17:17;15.10;;;7.13;;
15451;SDS011;7827;53.594;9.938;2023-02-12T02:20:29;17.27;;;7.17;;
15451;SDS011;7827;53.594;9.938;2023-02-12T02:23:49;15.77;;;7.03;;
15451;SDS011;7827;53.594;9.938;2023-02-12T02:26:53;14.40;;;7.67;;
15451;SDS011;7827;53.594;9.938;2023-02-12T02:33:09;20.10;;;8.27;;
15451;SDS011;7827;53.594;9.938;2023-02-12T02:35:51;18.40;;;8.50;;
15451;SDS011;7827;53.594;9.938;2023-02-12T02:38:32;20.43;;;8.50;;
15451;SDS011;7827;53.594;9.938;2023-02-12T02:41:09;19.60;;;8.80;;
15451;SDS011;7827;53.594;9.938;2023-02-12T02:43:46;19.77;;;8.73;;
15451;SDS011;7827;53.594;9.938;2023-02-12T02:46:22;15.93;;;7.37;;
15451;SDS011;7827;53.594;9.938;2023-02-12T02:48:57;19.17;;;7.90;;
15451;SDS011;7827;53.594;9.938;2023-02-12T02:51:32;17.77;;;7.67;;
15451;SDS011;7827;53.594;9.938;2023-02-12T02:54:08;17.37;;;7.37;;
15451;SDS011;7827;53.594;9.938;2023-02-12T02:56:43;15.77;;;6.73;;
15451;SDS011;7827;53.594;9.938;2023-02-12T02:59:17;17.07;;;7.60;;
15451;SDS011;7827;53.594;9.938;2023-02-12T03:01:53;15.87;;;7.50;;
15451;SDS011;7827;53.594;9.938;2023-02-12T03:04:30;17.43;;;7.87;;
15451;SDS011;7827;53.594;9.938;2023-02-12T03:07:03;16.47;;;7.40;;
15451;SDS011;7827;53.594;9.938;2023-02-12T03:09:38;21.90;;;7.87;;
15451;SDS011;7827;53.594;9.938;2023-02-12T03:12:14;20.67;;;8.13;;
15451;SDS011;7827;53.594;9.938;2023-02-12T03:14:49;19.53;;;8.27;;
15451;SDS011;7827;53.594;9.938;2023-02-12T03:17:28;20.93;;;8.30;;
15451;SDS011;7827;53.594;9.938;2023-02-12T03:20:03;20.47;;;8.47;;
15451;SDS011;7827;53.594;9.938;2023-02-12T03:22:38;21.43;;;9.00;;
15451;SDS011;7827;53.594;9.938;2023-02-12T03:25:13;23.03;;;8.73;;
15451;SDS011;7827;53.594;9.938;2023-02-12T03:27:48;20.63;;;8.13;;
15451;SDS011;7827;53.594;9.938;2023-02-12T03:30:28;19.10;;;8.53;;
15451;SDS011;7827;53.594;9.938;2023-02-12T03:33:12;17.30;;;7.23;;
15451;SDS011;7827;53.594;9.938;2023-02-12T03:35:51;17.37;;;6.70;;
15451;SDS011;7827;53.594;9.938;2023-02-12T03:38:33;12.50;;;6.37;;
15451;SDS011;7827;53.594;9.938;2023-02-12T03:41:08;15.37;;;6.67;;
15451;SDS011;7827;53.594;9.938;2023-02-12T03:43:46;9.57;;;4.80;;
15451;SDS011;7827;53.594;9.938;2023-02-12T03:46:19;9.00;;;5.17;;
15451;SDS011;7827;53.594;9.938;2023-02-12T03:48:57;16.53;;;5.57;;
15451;SDS011;7827;53.594;9.938;2023-02-12T03:51:32;10.53;;;5.07;;
15451;SDS011;7827;53.594;9.938;2023-02-12T03:54:05;9.63;;;4.83;;
15451;SDS011;7827;53.594;9.938;2023-02-12T03:56:37;15.40;;;5.57;;
15451;SDS011;7827;53.594;9.938;2023-02-12T03:59:13;11.40;;;5.23;;
15451;SDS011;7827;53.594;9.938;2023-02-12T04:01:42;10.50;;;5.50;;
15451;SDS011;7827;53.594;9.938;2023-02-12T04:04:12;12.50;;;5.70;;
15451;SDS011;7827;53.594;9.938;2023-02-12T04:06:41;11.43;;;4.97;;
15451;SDS011;7827;53.594;9.938;2023-02-12T04:09:12;9.37;;;4.70;;
15451;SDS011;7827;53.594;9.938;2023-02-12T04:11:45;16.33;;;5.50;;
15451;SDS011;7827;53.594;9.938;2023-02-12T04:14:30;11.13;;;4.67;;
15451;SDS011;7827;53.594;9.938;2023-02-12T04:17:10;16.43;;;4.93;;
15451;SDS011;7827;53.594;9.938;2023-02-12T04:19:52;12.43;;;4.80;;
15451;SDS011;7827;53.594;9.938;2023-02-12T04:22:37;14.30;;;4.00;;
15451;SDS011;7827;53.594;9.938;2023-02-12T04:25:20;20.97;;;4.77;;
15451;SDS011;7827;53.594;9.938;2023-02-12T04:28:03;15.33;;;4.73;;
15451;SDS011;7827;53.594;9.938;2023-02-12T04:30:44;18.53;;;6.27;;
15451;SDS011;7827;53.594;9.938;2023-02-12T04:33:22;21.83;;;5.90;;
15451;SDS011;7827;53.594;9.938;2023-02-12T04:35:58;33.60;;;6.10;;
15451;SDS011;7827;53.594;9.938;2023-02-12T04:38:33;42.83;;;6.07;;
15451;SDS011;7827;53.594;9.938;2023-02-12T04:41:07;55.43;;;6.87;;
15451;SDS011;7827;53.594;9.938;2023-02-12T04:43:36;21.53;;;6.60;;
15451;SDS011;7827;53.594;9.938;2023-02-12T04:46:05;20.47;;;6.77;;
15451;SDS011;7827;53.594;9.938;2023-02-12T04:48:35;57.37;;;7.87;;
15451;SDS011;7827;53.594;9.938;2023-02-12T04:51:18;41.33;;;7.20;;
15451;SDS011;7827;53.594;9.938;2023-02-12T04:53:46;55.73;;;8.50;;
15451;SDS011;7827;53.594;9.938;2023-02-12T04:56:15;38.63;;;8.17;;
15451;SDS011;7827;53.594;9.938;2023-02-12T04:58:44;50.63;;;9.90;;
15451;SDS011;7827;53.594;9.938;2023-02-12T05:01:12;29.17;;;9.97;;
15451;SDS011;7827;53.594;9.938;2023-02-12T05:03:41;58.93;;;11.37;;
15451;SDS011;7827;53.594;9.938;2023-02-12T05:06:09;46.03;;;11.00;;
15451;SDS011;7827;53.594;9.938;2023-02-12T05:08:39;39.73;;;12.00;;
15451;SDS011;7827;53.594;9.938;2023-02-12T05:11:07;50.87;;;13.03;;
15451;SDS011;7827;53.594;9.938;2023-02-12T05:13:37;144.77;;;16.60;;
15451;SDS011;7827;53.594;9.938;2023-02-12T05:16:07;127.50;;;16.73;;
15451;SDS011;7827;53.594;9.938;2023-02-12T05:18:35;49.50;;;14.17;;
15451;SDS011;7827;53.594;9.938;2023-02-12T05:21:03;68.33;;;14.83;;
15451;SDS011;7827;53.594;9.938;2023-02-12T05:23:33;59.80;;;15.83;;
15451;SDS011;7827;53.594;9.938;2023-02-12T05:26:06;48.90;;;15.63;;
15451;SDS011;7827;53.594;9.938;2023-02-12T05:28:38;147.63;;;19.97;;
15451;SDS011;7827;53.594;9.938;2023-02-12T05:31:07;62.97;;;16.07;;
15451;SDS011;7827;53.594;9.938;2023-02-12T05:33:46;59.80;;;15.83;;
15451;SDS011;7827;53.594;9.938;2023-02-12T05:36:17;55.83;;;15.43;;
15451;SDS011;7827;53.594;9.938;2023-02-12T05:38:48;56.47;;;15.63;;
15451;SDS011;7827;53.594;9.938;2023-02-12T05:41:20;63.80;;;15.23;;
15451;SDS011;7827;53.594;9.938;2023-02-12T05:43:51;99.40;;;16.17;;
15451;SDS011;7827;53.594;9.938;2023-02-12T05:46:20;47.90;;;15.23;;
15451;SDS011;7827;53.594;9.938;2023-02-12T05:48:49;77.63;;;15.07;;
15451;SDS011;7827;53.594;9.938;2023-02-12T05:51:17;80.43;;;15.43;;
15451;SDS011;7827;53.594;9.938;2023-02-12T05:53:48;54.43;;;14.03;;
15451;SDS011;7827;53.594;9.938;2023-02-12T05:56:21;72.03;;;15.23;;
15451;SDS011;7827;53.594;9.938;2023-02-12T05:58:52;60.10;;;14.30;;
15451;SDS011;7827;53.594;9.938;2023-02-12T06:01:24;62.20;;;14.50;;
15451;SDS011;7827;53.594;9.938;2023-02-12T06:03:55;68.77;;;14.73;;
15451;SDS011;7827;53.594;9.938;2023-02-12T06:06:25;61.23;;;15.13;;
15451;SDS011;7827;53.594;9.938;2023-02-12T06:08:55;81.80;;;16.20;;
15451;SDS011;7827;53.594;9.938;2023-02-12T06:11:26;80.73;;;15.77;;
15451;SDS011;7827;53.594;9.938;2023-02-12T06:13:55;55.33;;;15.13;;
15451;SDS011;7827;53.594;9.938;2023-02-12T06:16:24;106.50;;;16.83;;
15451;SDS011;7827;53.594;9.938;2023-02-12T06:18:54;48.77;;;15.30;;
15451;SDS011;7827;53.594;9.938;2023-02-12T06:21:24;54.47;;;16.07;;
15451;SDS011;7827;53.594;9.938;2023-02-12T06:23:54;78.27;;;16.80;;
15451;SDS011;7827;53.594;9.938;2023-02-12T06:26:23;53.77;;;15.67;;
15451;SDS011;7827;53.594;9.938;2023-02-12T06:28:53;49.87;;;15.30;;
15451;SDS011;7827;53.594;9.938;2023-02-12T06:31:22;54.50;;;16.10;;
15451;SDS011;7827;53.594;9.938;2023-02-12T06:33:54;69.67;;;18.20;;
15451;SDS011;7827;53.594;9.938;2023-02-12T06:36:24;45.43;;;15.87;;
15451;SDS011;7827;53.594;9.938;2023-02-12T06:38:53;55.83;;;16.23;;
15451;SDS011;7827;53.594;9.938;2023-02-12T06:41:21;52.53;;;15.97;;
15451;SDS011;7827;53.594;9.938;2023-02-12T06:43:51;55.17;;;15.73;;
15451;SDS011;7827;53.594;9.938;2023-02-12T06:46:20;52.03;;;16.40;;
15451;SDS011;7827;53.594;9.938;2023-02-12T06:48:51;60.97;;;16.42;;
15451;SDS011;7827;53.594;9.938;2023-02-12T06:51:20;59.60;;;16.87;;
15451;SDS011;7827;53.594;9.938;2023-02-12T06:53:50;61.27;;;16.43;;
15451;SDS011;7827;53.594;9.938;2023-02-12T06:56:20;80.47;;;17.10;;
15451;SDS011;7827;53.594;9.938;2023-02-12T06:58:53;44.37;;;15.37;;
15451;SDS011;7827;53.594;9.938;2023-02-12T07:01:25;46.73;;;15.53;;
15451;SDS011;7827;53.594;9.938;2023-02-12T07:03:56;98.87;;;17.77;;
15451;SDS011;7827;53.594;9.938;2023-02-12T07:06:28;46.60;;;16.67;;
15451;SDS011;7827;53.594;9.938;2023-02-12T07:08:58;40.03;;;15.63;;
15451;SDS011;7827;53.594;9.938;2023-02-12T07:11:27;44.27;;;16.13;;
15451;SDS011;7827;53.594;9.938;2023-02-12T07:13:59;49.30;;;15.63;;
15451;SDS011;7827;53.594;9.938;2023-02-12T07:16:27;51.63;;;16.07;;
15451;SDS011;7827;53.594;9.938;2023-02-12T07:18:55;40.40;;;15.67;;
15451;SDS011;7827;53.594;9.938;2023-02-12T07:21:24;46.40;;;16.97;;
15451;SDS011;7827;53.594;9.938;2023-02-12T07:23:52;50.90;;;15.23;;
15451;SDS011;7827;53.594;9.938;2023-02-12T07:26:21;43.23;;;14.87;;
15451;SDS011;7827;53.594;9.938;2023-02-12T07:28:49;42.57;;;15.33;;
15451;SDS011;7827;53.594;9.938;2023-02-12T07:31:20;78.87;;;16.70;;
15451;SDS011;7827;53.594;9.938;2023-02-12T07:33:52;51.17;;;15.70;;
15451;SDS011;7827;53.594;9.938;2023-02-12T07:36:21;59.33;;;17.13;;
15451;SDS011;7827;53.594;9.938;2023-02-12T07:38:52;98.37;;;17.43;;
15451;SDS011;7827;53.594;9.938;2023-02-12T07:41:22;59.83;;;16.27;;
15451;SDS011;7827;53.594;9.938;2023-02-12T07:43:53;154.10;;;18.70;;
15451;SDS011;7827;53.594;9.938;2023-02-12T07:46:25;104.07;;;18.40;;
15451;SDS011;7827;53.594;9.938;2023-02-12T07:48:57;90.50;;;18.03;;
15451;SDS011;7827;53.594;9.938;2023-02-12T07:51:27;80.20;;;18.03;;
15451;SDS011;7827;53.594;9.938;2023-02-12T07:53:58;77.47;;;17.93;;
15451;SDS011;7827;53.594;9.938;2023-02-12T07:56:28;69.80;;;18.17;;
15451;SDS011;7827;53.594;9.938;2023-02-12T07:59:01;61.23;;;16.93;;
15451;SDS011;7827;53.594;9.938;2023-02-12T08:01:33;60.07;;;18.90;;
15451;SDS011;7827;53.594;9.938;2023-02-12T08:04:05;56.23;;;17.87;;
15451;SDS011;7827;53.594;9.938;2023-02-12T08:06:37;76.27;;;18.90;;
15451;SDS011;7827;53.594;9.938;2023-02-12T08:09:08;79.20;;;19.27;;
15451;SDS011;7827;53.594;9.938;2023-02-12T08:11:40;67.47;;;18.73;;
15451;SDS011;7827;53.594;9.938;2023-02-12T08:14:10;67.73;;;18.03;;
15451;SDS011;7827;53.594;9.938;2023-02-12T08:16:43;64.60;;;18.30;;
15451;SDS011;7827;53.594;9.938;2023-02-12T08:19:13;62.63;;;19.53;;
15451;SDS011;7827;53.594;9.938;2023-02-12T08:21:48;57.63;;;19.83;;
15451;SDS011;7827;53.594;9.938;2023-02-12T08:24:18;59.83;;;19.60;;
15451;SDS011;7827;53.594;9.938;2023-02-12T08:26:47;73.73;;;20.20;;
15451;SDS011;7827;53.594;9.938;2023-02-12T08:29:17;57.53;;;19.17;;
15451;SDS011;7827;53.594;9.938;2023-02-12T08:31:50;57.03;;;19.57;;
15451;SDS011;7827;53.594;9.938;2023-02-12T08:34:24;57.07;;;20.33;;
15451;SDS011;7827;53.594;9.938;2023-02-12T08:36:54;57.37;;;18.47;;
15451;SDS011;7827;53.594;9.938;2023-02-12T08:39:24;49.83;;;18.03;;
15451;SDS011;7827;53.594;9.938;2023-02-12T08:41:55;48.70;;;19.10;;
15451;SDS011;7827;53.594;9.938;2023-02-12T08:44:24;54.80;;;19.83;;
15451;SDS011;7827;53.594;9.938;2023-02-12T08:46:54;53.40;;;19.83;;
15451;SDS011;7827;53.594;9.938;2023-02-12T08:49:23;55.10;;;19.97;;
15451;SDS011;7827;53.594;9.938;2023-02-12T08:51:54;52.20;;;20.43;;
15451;SDS011;7827;53.594;9.938;2023-02-12T08:54:25;49.40;;;18.63;;
15451;SDS011;7827;53.594;9.938;2023-02-12T08:56:56;56.47;;;19.73;;
15451;SDS011;7827;53.594;9.938;2023-02-12T08:59:26;58.27;;;21.17;;
15451;SDS011;7827;53.594;9.938;2023-02-12T09:01:57;46.90;;;19.43;;
15451;SDS011;7827;53.594;9.938;2023-02-12T09:04:26;56.40;;;19.90;;
15451;SDS011;7827;53.594;9.938;2023-02-12T09:06:56;59.60;;;20.37;;
15451;SDS011;7827;53.594;9.938;2023-02-12T09:09:24;53.67;;;19.27;;
15451;SDS011;7827;53.594;9.938;2023-02-12T09:11:53;49.87;;;18.27;;
15451;SDS011;7827;53.594;9.938;2023-02-12T09:14:21;47.47;;;18.13;;
15451;SDS011;7827;53.594;9.938;2023-02-12T09:16:51;48.77;;;17.23;;
15451;SDS011;7827;53.594;9.938;2023-02-12T09:19:21;54.08;;;18.55;;
15451;SDS011;7827;53.594;9.938;2023-02-12T09:21:50;48.83;;;18.80;;
15451;SDS011;7827;53.594;9.938;2023-02-12T09:24:22;50.28;;;18.67;;
15451;SDS011;7827;53.594;9.938;2023-02-12T09:26:51;42.90;;;18.05;;
15451;SDS011;7827;53.594;9.938;2023-02-12T09:29:19;43.00;;;17.50;;
15451;SDS011;7827;53.594;9.938;2023-02-12T09:31:47;50.00;;;19.40;;
15451;SDS011;7827;53.594;9.938;2023-02-12T09:34:16;52.70;;;18.90;;
15451;SDS011;7827;53.594;9.938;2023-02-12T09:36:46;44.70;;;17.37;;
15451;SDS011;7827;53.594;9.938;2023-02-12T09:39:14;45.93;;;18.23;;
15451;SDS011;7827;53.594;9.938;2023-02-12T09:41:48;43.70;;;17.83;;
15451;SDS011;7827;53.594;9.938;2023-02-12T09:44:46;42.07;;;16.53;;
15451;SDS011;7827;53.594;9.938;2023-02-12T09:47:25;41.78;;;18.08;;
15451;SDS011;7827;53.594;9.938;2023-02-12T09:50:03;39.60;;;16.70;;
15451;SDS011;7827;53.594;9.938;2023-02-12T09:52:51;38.93;;;16.67;;
15451;SDS011;7827;53.594;9.938;2023-02-12T09:55:24;38.20;;;17.00;;
15451;SDS011;7827;53.594;9.938;2023-02-12T09:57:57;35.60;;;16.73;;
15451;SDS011;7827;53.594;9.938;2023-02-12T10:00:30;40.80;;;17.75;;
15451;SDS011;7827;53.594;9.938;2023-02-12T10:02:59;40.65;;;18.33;;
15451;SDS011;7827;53.594;9.938;2023-02-12T10:05:31;41.53;;;18.48;;
15451;SDS011;7827;53.594;9.938;2023-02-12T10:11:13;40.58;;;19.08;;
15451;SDS011;7827;53.594;9.938;2023-02-12T10:14:00;45.50;;;20.88;;
15451;SDS011;7827;53.594;9.938;2023-02-12T10:16:50;47.78;;;20.98;;
15451;SDS011;7827;53.594;9.938;2023-02-12T10:19:40;44.60;;;20.75;;
15451;SDS011;7827;53.594;9.938;2023-02-12T10:22:29;47.13;;;20.60;;
15451;SDS011;7827;53.594;9.938;2023-02-12T10:25:25;48.40;;;20.90;;
15451;SDS011;7827;53.594;9.938;2023-02-12T10:28:04;52.05;;;21.58;;
15451;SDS011;7827;53.594;9.938;2023-02-12T10:30:40;45.90;;;20.17;;
15451;SDS011;7827;53.594;9.938;2023-02-12T10:33:16;48.23;;;21.70;;
15451;SDS011;7827;53.594;9.938;2023-02-12T10:35:50;47.30;;;19.50;;
15451;SDS011;7827;53.594;9.938;2023-02-12T10:38:26;43.23;;;19.97;;
15451;SDS011;7827;53.594;9.938;2023-02-12T10:41:04;43.90;;;19.75;;
15451;SDS011;7827;53.594;9.938;2023-02-12T10:43:33;51.00;;;21.77;;
15451;SDS011;7827;53.594;9.938;2023-02-12T10:46:03;46.70;;;21.33;;
15451;SDS011;7827;53.594;9.938;2023-02-12T10:48:34;49.05;;;21.85;;
15451;SDS011;7827;53.594;9.938;2023-02-12T10:51:20;42.63;;;20.37;;
15451;SDS011;7827;53.594;9.938;2023-02-12T10:57:06;40.95;;;19.92;;
15451;SDS011;7827;53.594;9.938;2023-02-12T10:59:40;37.20;;;18.92;;
15451;SDS011;7827;53.594;9.938;2023-02-12T11:05:14;41.42;;;19.25;;
15451;SDS011;7827;53.594;9.938;2023-02-12T11:07:51;41.58;;;19.13;;
15451;SDS011;7827;53.594;9.938;2023-02-12T11:10:20;35.97;;;18.83;;
15451;SDS011;7827;53.594;9.938;2023-02-12T11:12:55;42.97;;;18.47;;
15451;SDS011;7827;53.594;9.938;2023-02-12T11:15:26;40.57;;;20.00;;
15451;SDS011;7827;53.594;9.938;2023-02-12T11:18:03;42.13;;;20.08;;
15451;SDS011;7827;53.594;9.938;2023-02-12T11:20:36;43.07;;;19.83;;
15451;SDS011;7827;53.594;9.938;2023-02-12T11:23:21;41.10;;;19.77;;
15451;SDS011;7827;53.594;9.938;2023-02-12T11:25:55;42.43;;;18.97;;
15451;SDS011;7827;53.594;9.938;2023-02-12T11:28:28;47.67;;;18.07;;
15451;SDS011;7827;53.594;9.938;2023-02-12T11:30:59;40.37;;;18.83;;
15451;SDS011;7827;53.594;9.938;2023-02-12T11:33:32;40.13;;;18.97;;
15451;SDS011;7827;53.594;9.938;2023-02-12T11:36:03;41.70;;;17.57;;
15451;SDS011;7827;53.594;9.938;2023-02-12T11:38:47;35.10;;;16.83;;
15451;SDS011;7827;53.594;9.938;2023-02-12T11:41:23;42.67;;;18.20;;
15451;SDS011;7827;53.594;9.938;2023-02-12T11:44:01;41.70;;;18.50;;
15451;SDS011;7827;53.594;9.938;2023-02-12T11:46:36;47.87;;;20.57;;
15451;SDS011;7827;53.594;9.938;2023-02-12T11:49:07;49.47;;;20.30;;
15451;SDS011;7827;53.594;9.938;2023-02-12T11:51:45;45.13;;;19.70;;
15451;SDS011;7827;53.594;9.938;2023-02-12T11:54:17;51.20;;;22.67;;
15451;SDS011;7827;53.594;9.938;2023-02-12T11:56:51;54.60;;;20.73;;
15451;SDS011;7827;53.594;9.938;2023-02-12T11:59:28;46.75;;;21.42;;
15451;SDS011;7827;53.594;9.938;2023-02-12T12:02:03;47.60;;;20.60;;
15451;SDS011;7827;53.594;9.938;2023-02-12T12:04:49;46.73;;;20.60;;
15451;SDS011;7827;53.594;9.938;2023-02-12T12:07:23;41.17;;;19.40;;
15451;SDS011;7827;53.594;9.938;2023-02-12T12:09:57;41.87;;;18.30;;
15451;SDS011;7827;53.594;9.938;2023-02-12T12:12:32;45.58;;;18.02;;
15451;SDS011;7827;53.594;9.938;2023-02-12T12:15:14;39.40;;;17.37;;
15451;SDS011;7827;53.594;9.938;2023-02-12T12:18:08;40.97;;;16.07;;
15451;SDS011;7827;53.594;9.938;2023-02-12T12:21:08;32.50;;;15.17;;
15451;SDS011;7827;53.594;9.938;2023-02-12T12:23:48;32.10;;;15.93;;
15451;SDS011;7827;53.594;9.938;2023-02-12T12:26:21;34.70;;;15.30;;
15451;SDS011;7827;53.594;9.938;2023-02-12T12:28:53;32.83;;;15.35;;
15451;SDS011;7827;53.594;9.938;2023-02-12T12:31:33;32.05;;;15.50;;
15451;SDS011;7827;53.594;9.938;2023-02-12T12:34:07;28.13;;;15.13;;
15451;SDS011;7827;53.594;9.938;2023-02-12T12:39:53;30.30;;;14.77;;
15451;SDS011;7827;53.594;9.938;2023-02-12T12:42:47;27.43;;;13.77;;
15451;SDS011;7827;53.594;9.938;2023-02-12T12:45:41;28.07;;;13.83;;
15451;SDS011;7827;53.594;9.938;2023-02-12T12:48:32;25.38;;;13.32;;
15451;SDS011;7827;53.594;9.938;2023-02-12T12:51:35;22.65;;;12.05;;
15451;SDS011;7827;53.594;9.938;2023-02-12T12:54:36;18.53;;;10.47;;
15451;SDS011;7827;53.594;9.938;2023-02-12T12:57:25;20.33;;;10.43;;
15451;SDS011;7827;53.594;9.938;2023-02-12T13:03:18;16.97;;;9.77;;
15451;SDS011;7827;53.594;9.938;2023-02-12T13:06:29;15.50;;;8.80;;
15451;SDS011;7827;53.594;9.938;2023-02-12T13:12:26;15.40;;;8.73;;
15451;SDS011;7827;53.594;9.938;2023-02-12T13:15:24;16.17;;;8.70;;
15451;SDS011;7827;53.594;9.938;2023-02-12T13:18:05;14.50;;;8.10;;
15451;SDS011;7827;53.594;9.938;2023-02-12T13:20:48;15.53;;;8.20;;
15451;SDS011;7827;53.594;9.938;2023-02-12T13:23:28;14.07;;;7.53;;
15451;SDS011;7827;53.594;9.938;2023-02-12T13:26:11;14.43;;;7.77;;
15451;SDS011;7827;53.594;9.938;2023-02-12T13:28:49;10.37;;;6.80;;
15451;SDS011;7827;53.594;9.938;2023-02-12T13:31:23;11.43;;;7.03;;
15451;SDS011;7827;53.594;9.938;2023-02-12T13:34:00;12.20;;;7.40;;
15451;SDS011;7827;53.594;9.938;2023-02-12T13:36:35;12.37;;;6.87;;
15451;SDS011;7827;53.594;9.938;2023-02-12T13:39:06;12.77;;;7.37;;
15451;SDS011;7827;53.594;9.938;2023-02-12T13:41:57;13.50;;;7.33;;
15451;SDS011;7827;53.594;9.938;2023-02-12T13:44:42;11.43;;;7.03;;
15451;SDS011;7827;53.594;9.938;2023-02-12T13:47:25;13.70;;;7.60;;
15451;SDS011;7827;53.594;9.938;2023-02-12T13:50:05;12.07;;;7.27;;
15451;SDS011;7827;53.594;9.938;2023-02-12T13:53:00;13.13;;;7.67;;
15451;SDS011;7827;53.594;9.938;2023-02-12T13:55:48;13.00;;;7.33;;
15451;SDS011;7827;53.594;9.938;2023-02-12T13:58:39;13.93;;;7.93;;
15451;SDS011;7827;53.594;9.938;2023-02-12T14:01:39;14.63;;;7.57;;
15451;SDS011;7827;53.594;9.938;2023-02-12T14:04:14;13.47;;;8.10;;
15451;SDS011;7827;53.594;9.938;2023-02-12T14:06:54;14.43;;;8.47;;
15451;SDS011;7827;53.594;9.938;2023-02-12T14:09:33;17.70;;;9.10;;
15451;SDS011;7827;53.594;9.938;2023-02-12T14:12:06;18.73;;;10.50;;
15451;SDS011;7827;53.594;9.938;2023-02-12T14:14:39;20.60;;;12.83;;
15451;SDS011;7827;53.594;9.938;2023-02-12T14:20:27;21.20;;;12.07;;
15451;SDS011;7827;53.594;9.938;2023-02-12T14:23:00;24.53;;;11.83;;
15451;SDS011;7827;53.594;9.938;2023-02-12T14:25:55;17.70;;;11.00;;
15451;SDS011;7827;53.594;9.938;2023-02-12T14:28:47;22.07;;;11.63;;
15451;SDS011;7827;53.594;9.938;2023-02-12T14:37:16;27.10;;;12.43;;
15451;SDS011;7827;53.594;9.938;2023-02-12T14:43:23;21.60;;;11.77;;
15451;SDS011;7827;53.594;9.938;2023-02-12T14:45:58;24.73;;;12.57;;
15451;SDS011;7827;53.594;9.938;2023-02-12T14:49:23;22.90;;;12.00;;
15451;SDS011;7827;53.594;9.938;2023-02-12T14:51:56;25.93;;;13.60;;
15451;SDS011;7827;53.594;9.938;2023-02-12T14:54:31;24.90;;;12.87;;
15451;SDS011;7827;53.594;9.938;2023-02-12T14:57:07;22.80;;;12.20;;
15451;SDS011;7827;53.594;9.938;2023-02-12T14:59:46;23.47;;;12.23;;
15451;SDS011;7827;53.594;9.938;2023-02-12T15:02:18;21.20;;;11.10;;
15451;SDS011;7827;53.594;9.938;2023-02-12T15:04:53;17.77;;;10.23;;
15451;SDS011;7827;53.594;9.938;2023-02-12T15:07:28;18.67;;;9.70;;
15451;SDS011;7827;53.594;9.938;2023-02-12T15:10:04;15.63;;;10.10;;
15451;SDS011;7827;53.594;9.938;2023-02-12T15:12:43;16.50;;;8.63;;
15451;SDS011;7827;53.594;9.938;2023-02-12T15:15:20;15.50;;;8.50;;
15451;SDS011;7827;53.594;9.938;2023-02-12T15:17:59;13.03;;;8.60;;
15451;SDS011;7827;53.594;9.938;2023-02-12T15:20:39;14.47;;;8.73;;
15451;SDS011;7827;53.594;9.938;2023-02-12T15:26:11;12.30;;;8.00;;
15451;SDS011;7827;53.594;9.938;2023-02-12T15:28:44;15.10;;;8.23;;
15451;SDS011;7827;53.594;9.938;2023-02-12T15:31:15;13.77;;;8.00;;
15451;SDS011;7827;53.594;9.938;2023-02-12T15:33:50;11.35;;;8.07;;
15451;SDS011;7827;53.594;9.938;2023-02-12T15:36:22;12.70;;;8.13;;
15451;SDS011;7827;53.594;9.938;2023-02-12T15:38:54;13.93;;;8.57;;
15451;SDS011;7827;53.594;9.938;2023-02-12T15:41:27;14.32;;;8.85;;
15451;SDS011;7827;53.594;9.938;2023-02-12T15:44:16;15.93;;;9.47;;
15451;SDS011;7827;53.594;9.938;2023-02-12T15:46:53;15.73;;;8.90;;
15451;SDS011;7827;53.594;9.938;2023-02-12T15:49:31;15.43;;;9.43;;
15451;SDS011;7827;53.594;9.938;2023-02-12T15:52:03;12.97;;;8.20;;
15451;SDS011;7827;53.594;9.938;2023-02-12T15:54:37;10.43;;;7.70;;
15451;SDS011;7827;53.594;9.938;2023-02-12T15:57:09;10.53;;;6.90;;
15451;SDS011;7827;53.594;9.938;2023-02-12T15:59:48;11.17;;;7.07;;
15451;SDS011;7827;53.594;9.938;2023-02-12T16:02:19;9.07;;;6.27;;
15451;SDS011;7827;53.594;9.938;2023-02-12T16:04:54;9.67;;;5.93;;